Time;durP1;ratioP1;P1;durP2;ratioP2;P2;SDS_P1;SDS_P2;PMS_P1;PMS_P2;Temp;Humidity;BMP_temperature;BMP_pressure;BME280_temperature;BME280_humidity;BME280_pressure;Samples;Min_cycle;Max_cycle;Signal;HPM_P1;HPM_P2
2023/09/12 00:00:06;;;;;;;7.53;5.87;;;20.20;96.90;;;;;;4985605;28;21066;-65
2023/09/12 00:02:32;;;;;;;7.80;5.47;;;20.20;97.10;;;;;;5001447;28;20564;-65
2023/09/12 00:04:59;;;;;;;7.73;4.87;;;20.20;97.10;;;;;;4992139;28;20473;-65
2023/09/12 00:07:26;;;;;;;8.70;5.10;;;20.20;96.90;;;;;;4993712;28;20462;-65
2023/09/12 00:09:53;;;;;;;15.43;5.57;;;20.20;97.20;;;;;;4993194;28;20485;-65
2023/09/12 00:12:24;;;;;;;9.83;6.47;;;20.00;97.70;;;;;;4976562;28;20488;-65
2023/09/12 00:14:51;;;;;;;7.60;5.60;;;19.80;97.80;;;;;;5000202;28;20514;-65
2023/09/12 00:17:18;;;;;;;7.90;5.50;;;19.80;97.80;;;;;;4991263;28;20481;-65
2023/09/12 00:19:44;;;;;;;8.80;5.87;;;19.60;97.90;;;;;;4988343;28;20876;-64
2023/09/12 00:22:11;;;;;;;9.13;6.23;;;19.60;98.00;;;;;;4991976;28;20480;-65
2023/09/12 00:24:38;;;;;;;21.03;6.00;;;19.40;98.40;;;;;;4992584;28;20883;-65
2023/09/12 00:27:05;;;;;;;7.87;5.60;;;19.40;98.60;;;;;;4981556;28;20590;-65
2023/09/12 00:29:34;;;;;;;9.77;5.70;;;19.60;98.20;;;;;;4989886;28;20478;-65
2023/09/12 00:32:00;;;;;;;9.63;5.43;;;19.70;98.00;;;;;;4990978;28;20477;-65
2023/09/12 00:34:27;;;;;;;9.70;6.73;;;19.90;97.80;;;;;;4988883;28;20477;-65
2023/09/12 00:36:54;;;;;;;9.07;6.60;;;19.90;97.50;;;;;;4979579;28;20567;-65
2023/09/12 00:39:20;;;;;;;9.40;6.40;;;20.00;97.20;;;;;;4995934;28;20814;-65
2023/09/12 00:41:47;;;;;;;6.80;5.60;;;20.10;97.20;;;;;;4990770;28;20481;-65
2023/09/12 00:44:14;;;;;;;6.73;4.80;;;20.10;97.00;;;;;;4989628;28;20478;-65
2023/09/12 00:46:45;;;;;;;8.23;4.80;;;20.10;97.00;;;;;;4981189;28;21023;-65
2023/09/12 00:49:13;;;;;;;7.83;5.33;;;20.10;97.10;;;;;;4994075;28;20501;-65
2023/09/12 00:51:40;;;;;;;10.70;7.30;;;20.10;97.00;;;;;;4984743;28;20502;-64
2023/09/12 00:54:07;;;;;;;12.33;6.30;;;20.10;97.40;;;;;;4985655;28;20876;-64
2023/09/12 00:56:34;;;;;;;6.80;5.07;;;20.10;97.20;;;;;;4990759;28;20489;-64
2023/09/12 00:59:02;;;;;;;7.10;5.67;;;20.00;97.00;;;;;;4985020;28;20850;-63
2023/09/12 01:01:28;;;;;;;11.40;6.60;;;20.10;97.20;;;;;;4984259;28;20489;-64
2023/09/12 01:03:57;;;;;;;10.50;5.70;;;20.10;97.00;;;;;;4982271;28;20485;-64
2023/09/12 01:06:27;;;;;;;10.20;6.07;;;20.10;96.80;;;;;;4988115;28;20469;-64
2023/09/12 01:08:54;;;;;;;7.00;5.80;;;20.20;97.10;;;;;;5002962;28;20988;-64
2023/09/12 01:11:21;;;;;;;8.00;5.33;;;20.20;97.10;;;;;;4988667;28;20552;-65
2023/09/12 01:13:48;;;;;;;7.03;5.60;;;20.30;96.90;;;;;;4991496;28;20488;-64
2023/09/12 01:16:15;;;;;;;9.53;6.03;;;20.30;96.70;;;;;;4988030;28;20481;-64
2023/09/12 01:18:42;;;;;;;13.03;6.00;;;20.30;96.80;;;;;;4998602;28;20477;-64
2023/09/12 01:21:39;;;;;;;8.90;5.87;;;20.30;96.90;;;;;;4985084;28;20477;-64
2023/09/12 01:24:41;;;;;;;10.57;5.30;;;20.30;96.90;;;;;;4994227;28;20470;-64
2023/09/12 01:27:31;;;;;;;8.20;5.17;;;20.20;97.00;;;;;;4989436;28;20479;-64
2023/09/12 01:30:00;;;;;;;8.53;5.87;;;20.00;97.30;;;;;;4986761;28;20558;-64
2023/09/12 01:32:28;;;;;;;6.90;5.37;;;20.00;97.20;;;;;;4989540;28;20470;-63
2023/09/12 01:34:55;;;;;;;5.57;5.07;;;19.80;97.50;;;;;;4989166;28;20951;-64
2023/09/12 01:37:21;;;;;;;7.63;4.67;;;19.80;97.50;;;;;;4984562;28;20472;-64
2023/09/12 01:39:48;;;;;;;10.47;6.83;;;19.70;97.50;;;;;;4998804;28;20481;-64
2023/09/12 01:42:18;;;;;;;7.27;5.87;;;19.70;97.40;;;;;;4988144;28;20470;-64
2023/09/12 01:44:47;;;;;;;10.57;6.73;;;19.70;97.70;;;;;;4987118;28;20486;-64
2023/09/12 01:47:17;;;;;;;10.57;6.27;;;19.70;97.60;;;;;;4993415;28;20983;-64
2023/09/12 01:49:48;;;;;;;6.03;5.00;;;19.80;97.50;;;;;;4986715;28;20505;-64
2023/09/12 01:52:15;;;;;;;11.20;6.03;;;19.80;97.50;;;;;;4987606;28;20474;-64
2023/09/12 01:54:43;;;;;;;6.90;5.20;;;19.80;97.30;;;;;;4989217;28;20489;-64
2023/09/12 01:57:10;;;;;;;10.93;6.23;;;19.80;97.30;;;;;;4988123;28;20470;-64
2023/09/12 01:59:37;;;;;;;9.87;7.17;;;19.80;98.20;;;;;;4986203;28;20500;-64
2023/09/12 02:02:06;;;;;;;9.40;5.60;;;19.70;97.90;;;;;;4973927;28;21886;-64
2023/09/12 02:04:32;;;;;;;9.80;5.80;;;19.70;97.70;;;;;;4987747;28;20564;-64
2023/09/12 02:06:59;;;;;;;7.37;6.07;;;19.70;97.70;;;;;;4985465;28;25901;-64
2023/09/12 02:09:26;;;;;;;7.50;6.00;;;19.70;97.80;;;;;;4984968;28;20482;-64
2023/09/12 02:11:53;;;;;;;5.37;4.73;;;19.70;97.70;;;;;;4992313;28;20482;-64
2023/09/12 02:14:19;;;;;;;5.40;4.90;;;19.70;97.60;;;;;;4982251;28;20497;-64
2023/09/12 02:16:46;;;;;;;9.10;5.60;;;19.60;98.40;;;;;;4985969;28;20486;-63
2023/09/12 02:19:14;;;;;;;8.67;6.63;;;19.40;99.30;;;;;;4986650;28;20477;-64
2023/09/12 02:21:41;;;;;;;13.70;6.77;;;19.30;99.70;;;;;;4989218;28;20474;-63
2023/09/12 02:24:09;;;;;;;8.73;5.80;;;19.40;99.70;;;;;;4989235;28;20485;-64
2023/09/12 02:26:36;;;;;;;10.13;6.30;;;19.50;99.40;;;;;;4988463;28;20472;-64
2023/09/12 02:29:03;;;;;;;6.33;4.83;;;19.60;99.00;;;;;;4985906;28;20916;-64
2023/09/12 02:31:30;;;;;;;8.53;6.20;;;19.60;98.70;;;;;;4998541;28;20528;-64
2023/09/12 02:33:57;;;;;;;11.73;5.60;;;19.40;98.80;;;;;;4976196;28;20474;-63
2023/09/12 02:36:25;;;;;;;13.03;6.30;;;19.50;98.80;;;;;;5001173;28;20478;-64
2023/09/12 02:38:51;;;;;;;8.80;5.30;;;19.60;98.60;;;;;;4988080;28;20606;-64
2023/09/12 02:41:18;;;;;;;8.40;5.87;;;19.70;98.50;;;;;;4977468;28;20521;-64
2023/09/12 02:43:45;;;;;;;10.40;6.10;;;19.60;98.90;;;;;;5000478;28;20843;-64
2023/09/12 02:46:12;;;;;;;11.83;6.80;;;19.50;99.10;;;;;;4989809;28;20485;-64
2023/09/12 02:48:38;;;;;;;9.47;5.90;;;19.50;99.20;;;;;;4984812;28;21378;-63
2023/09/12 02:51:06;;;;;;;6.27;5.27;;;19.40;99.30;;;;;;4998756;28;20486;-63
2023/09/12 02:53:34;;;;;;;12.97;7.40;;;19.40;99.10;;;;;;4989804;28;20473;-64
2023/09/12 02:56:00;;;;;;;7.93;5.77;;;19.40;99.50;;;;;;4984877;28;20476;-63
2023/09/12 02:58:26;;;;;;;9.37;6.30;;;19.40;99.50;;;;;;4978557;28;20924;-63
2023/09/12 03:00:54;;;;;;;8.70;5.47;;;19.40;99.30;;;;;;4995531;28;20481;-64
2023/09/12 03:03:21;;;;;;;10.07;6.17;;;19.40;99.10;;;;;;4983538;28;20832;-64
2023/09/12 03:05:48;;;;;;;7.43;5.63;;;19.30;99.40;;;;;;4987650;28;21216;-63
2023/09/12 03:08:14;;;;;;;12.80;7.33;;;19.10;99.50;;;;;;4992129;28;20478;-64
2023/09/12 03:10:42;;;;;;;6.23;4.30;;;19.10;99.40;;;;;;4993076;28;20675;-63
2023/09/12 03:13:12;;;;;;;12.80;6.00;;;19.00;99.80;;;;;;4983622;28;20852;-64
2023/09/12 03:15:38;;;;;;;6.47;5.40;;;19.00;99.90;;;;;;4989398;28;20520;-63
2023/09/12 03:18:06;;;;;;;12.60;5.37;;;19.00;99.90;;;;;;4989824;28;20519;-64
2023/09/12 03:20:32;;;;;;;7.27;5.37;;;18.90;99.90;;;;;;5000709;28;20498;-65
2023/09/12 03:22:59;;;;;;;9.13;6.33;;;19.00;99.90;;;;;;4994021;28;20847;-65
2023/09/12 03:25:26;;;;;;;14.30;5.80;;;18.90;99.90;;;;;;4981208;28;20488;-65
2023/09/12 03:27:54;;;;;;;9.80;5.97;;;18.90;99.90;;;;;;4988595;28;20854;-65
2023/09/12 03:30:21;;;;;;;12.03;7.17;;;19.00;99.90;;;;;;4979279;28;20473;-65
2023/09/12 03:32:48;;;;;;;9.77;5.80;;;19.00;99.90;;;;;;4981558;28;20492;-64
2023/09/12 03:35:15;;;;;;;10.67;5.60;;;19.20;99.90;;;;;;5004203;28;20478;-65
2023/09/12 03:37:43;;;;;;;9.03;5.33;;;19.20;99.70;;;;;;4986537;28;20486;-64
2023/09/12 03:40:11;;;;;;;8.00;5.70;;;19.30;99.40;;;;;;4980283;28;20988;-64
2023/09/12 03:42:38;;;;;;;7.27;5.47;;;19.30;99.20;;;;;;4988448;28;21267;-64
2023/09/12 03:45:07;;;;;;;11.60;6.37;;;19.20;99.20;;;;;;4996143;28;20742;-65
2023/09/12 03:47:34;;;;;;;9.77;7.00;;;19.20;99.60;;;;;;4985147;28;20477;-65
2023/09/12 03:50:01;;;;;;;5.97;5.37;;;19.10;99.80;;;;;;4985381;28;20481;-64
2023/09/12 03:52:27;;;;;;;10.40;6.03;;;19.10;99.40;;;;;;4987452;28;20493;-65
2023/09/12 03:54:55;;;;;;;11.00;6.00;;;18.90;99.70;;;;;;4987121;28;20890;-64
2023/09/12 03:57:22;;;;;;;9.20;6.10;;;18.90;99.70;;;;;;4990089;28;20849;-64
2023/09/12 03:59:51;;;;;;;9.13;5.77;;;19.00;99.40;;;;;;4986545;28;20520;-65
2023/09/12 04:02:19;;;;;;;8.73;5.60;;;19.10;99.30;;;;;;4988774;28;20482;-65
2023/09/12 04:04:46;;;;;;;12.87;6.40;;;19.10;99.10;;;;;;4977334;28;20990;-64
2023/09/12 04:07:12;;;;;;;9.20;5.30;;;19.20;98.80;;;;;;4992610;28;20608;-65
2023/09/12 04:09:39;;;;;;;7.43;4.73;;;19.20;98.70;;;;;;4990571;28;20474;-65
2023/09/12 04:12:08;;;;;;;7.70;6.20;;;19.30;98.60;;;;;;4987892;28;20513;-65
2023/09/12 04:14:35;;;;;;;6.40;4.57;;;19.30;98.40;;;;;;4966769;28;20834;-65
2023/09/12 04:17:02;;;;;;;9.03;5.60;;;19.30;98.70;;;;;;4994798;28;20481;-65
2023/09/12 04:19:31;;;;;;;6.17;4.83;;;19.30;98.50;;;;;;4979287;28;20491;-65
2023/09/12 04:21:59;;;;;;;14.43;5.63;;;19.40;98.30;;;;;;4977416;28;20505;-64
2023/09/12 04:24:26;;;;;;;10.50;5.47;;;19.30;98.30;;;;;;4995525;28;20473;-64
2023/09/12 04:26:55;;;;;;;10.87;6.10;;;19.20;98.10;;;;;;5005584;28;20485;-65
2023/09/12 04:29:21;;;;;;;9.53;5.73;;;19.20;98.10;;;;;;4980533;28;20488;-65
2023/09/12 04:31:48;;;;;;;11.13;6.03;;;19.20;97.90;;;;;;4993346;28;20849;-64
2023/09/12 04:34:15;;;;;;;7.57;5.57;;;19.10;98.50;;;;;;4986974;28;20486;-65
2023/09/12 04:36:43;;;;;;;14.63;7.17;;;19.00;98.30;;;;;;4991408;28;20491;-64
2023/09/12 04:39:10;;;;;;;10.23;5.47;;;18.90;98.30;;;;;;4988754;28;20481;-64
2023/09/12 04:41:37;;;;;;;9.00;5.00;;;18.60;98.50;;;;;;4987565;28;20490;-64
2023/09/12 04:44:04;;;;;;;6.17;4.70;;;18.40;98.50;;;;;;4992998;28;20747;-65
2023/09/12 04:46:31;;;;;;;9.70;5.53;;;18.20;99.10;;;;;;4992126;28;20480;-64
2023/09/12 04:48:57;;;;;;;11.27;6.03;;;18.10;99.80;;;;;;4990865;28;20487;-65
2023/09/12 04:51:24;;;;;;;13.00;6.83;;;18.00;99.90;;;;;;4983816;28;20731;-65
2023/09/12 04:53:52;;;;;;;14.10;6.80;;;17.90;99.90;;;;;;4984793;28;20481;-65
2023/09/12 04:56:19;;;;;;;12.40;6.70;;;17.90;99.90;;;;;;4986197;28;20547;-65
2023/09/12 04:58:46;;;;;;;19.50;7.50;;;18.00;99.90;;;;;;4991328;28;20482;-65
2023/09/12 05:01:13;;;;;;;9.43;5.50;;;18.10;99.90;;;;;;4991100;28;20571;-65
2023/09/12 05:03:39;;;;;;;11.90;5.00;;;18.20;99.90;;;;;;4993354;28;21224;-65
2023/09/12 05:06:06;;;;;;;12.87;6.87;;;18.30;99.90;;;;;;4978580;28;20493;-65
2023/09/12 05:08:33;;;;;;;7.60;5.87;;;18.30;99.90;;;;;;4982297;28;20470;-65
2023/09/12 05:11:02;;;;;;;8.00;5.57;;;18.40;99.80;;;;;;4990169;28;21060;-65
2023/09/12 05:13:29;;;;;;;9.73;6.77;;;18.50;99.60;;;;;;4989141;28;21067;-64
2023/09/12 05:15:56;;;;;;;10.10;6.50;;;18.50;99.20;;;;;;4987745;28;20489;-65
2023/09/12 05:18:23;;;;;;;11.23;5.83;;;18.60;99.20;;;;;;4985221;28;21193;-65
2023/09/12 05:20:50;;;;;;;12.10;6.90;;;18.70;99.10;;;;;;4989460;28;20486;-65
2023/09/12 05:23:17;;;;;;;10.53;6.10;;;18.80;98.90;;;;;;4991343;28;20988;-64
2023/09/12 05:25:43;;;;;;;11.87;7.40;;;18.80;98.80;;;;;;4982251;28;20469;-65
2023/09/12 05:28:15;;;;;;;8.00;6.10;;;18.80;98.80;;;;;;4989861;28;20488;-65
2023/09/12 05:30:42;;;;;;;10.07;6.43;;;18.70;98.80;;;;;;4993470;28;20502;-65
2023/09/12 05:33:09;;;;;;;8.30;5.40;;;18.50;99.00;;;;;;4991200;28;20493;-65
2023/09/12 05:35:37;;;;;;;8.07;5.40;;;18.40;99.10;;;;;;4993255;28;20819;-65
2023/09/12 05:38:04;;;;;;;7.50;6.50;;;18.50;99.10;;;;;;4981033;28;20491;-65
2023/09/12 05:40:31;;;;;;;10.90;7.13;;;18.60;98.90;;;;;;4991498;28;20739;-65
2023/09/12 05:42:58;;;;;;;11.43;6.17;;;18.60;98.80;;;;;;4988093;28;20484;-65
2023/09/12 05:45:26;;;;;;;11.47;5.97;;;18.70;98.80;;;;;;4985611;28;20497;-65
2023/09/12 05:47:52;;;;;;;6.50;5.00;;;18.70;98.60;;;;;;4983564;28;20838;-65
2023/09/12 05:50:20;;;;;;;9.43;6.60;;;18.80;98.60;;;;;;4981288;28;21099;-64
2023/09/12 05:52:47;;;;;;;9.40;6.90;;;18.90;98.60;;;;;;4992096;28;20485;-64
2023/09/12 05:55:13;;;;;;;9.57;6.33;;;18.80;98.60;;;;;;4983409;28;20503;-64
2023/09/12 05:57:40;;;;;;;7.87;5.27;;;18.60;99.00;;;;;;4994936;28;20486;-65
2023/09/12 06:00:10;;;;;;;10.70;5.90;;;18.40;99.30;;;;;;4990241;28;21047;-65
2023/09/12 06:02:38;;;;;;;14.30;6.37;;;18.40;99.50;;;;;;4976918;28;20474;-65
2023/09/12 06:05:06;;;;;;;7.23;5.47;;;18.40;99.90;;;;;;4985074;28;20481;-64
2023/09/12 06:07:33;;;;;;;12.30;7.50;;;18.40;99.90;;;;;;4989104;28;20473;-65
2023/09/12 06:09:59;;;;;;;12.17;7.00;;;18.30;99.90;;;;;;4981266;28;21050;-65
2023/09/12 06:12:26;;;;;;;12.50;6.93;;;18.40;99.90;;;;;;4985703;28;20472;-65
2023/09/12 06:14:55;;;;;;;14.67;6.60;;;18.60;99.90;;;;;;4983671;28;20465;-65
2023/09/12 06:17:21;;;;;;;15.03;7.83;;;18.80;99.90;;;;;;4986999;28;22310;-64
2023/09/12 06:19:50;;;;;;;8.80;6.37;;;19.10;99.90;;;;;;4986408;28;20971;-65
2023/09/12 06:22:17;;;;;;;9.33;7.17;;;19.40;99.90;;;;;;4980467;28;21018;-65
2023/09/12 06:24:45;;;;;;;19.17;9.27;;;19.70;99.90;;;;;;5002674;28;21334;-65
2023/09/12 06:27:12;;;;;;;9.20;7.67;;;20.10;99.90;;;;;;4980379;28;20940;-65
2023/09/12 06:29:39;;;;;;;12.53;7.87;;;20.40;99.60;;;;;;4987955;28;20498;-64
2023/09/12 06:32:06;;;;;;;15.40;7.10;;;20.60;99.30;;;;;;4977242;28;20608;-64
2023/09/12 06:34:33;;;;;;;12.17;7.57;;;20.90;99.50;;;;;;5001567;28;20489;-64
2023/09/12 06:37:01;;;;;;;9.40;7.80;;;21.00;99.40;;;;;;4994804;28;20478;-64
2023/09/12 06:39:28;;;;;;;14.10;8.37;;;21.10;99.60;;;;;;4981222;28;20876;-64
2023/09/12 06:41:54;;;;;;;10.13;7.70;;;21.40;99.90;;;;;;4993891;28;20972;-64
2023/09/12 06:44:21;;;;;;;10.23;8.17;;;22.00;99.90;;;;;;4996005;28;20481;-64
2023/09/12 06:46:48;;;;;;;11.70;7.07;;;22.80;99.60;;;;;;4993599;28;20489;-65
2023/09/12 06:49:15;;;;;;;8.50;7.23;;;23.90;98.90;;;;;;4986796;28;20933;-65
2023/09/12 06:51:41;;;;;;;8.37;6.30;;;24.90;97.50;;;;;;4981069;28;20484;-64
2023/09/12 06:54:09;;;;;;;12.13;7.70;;;25.90;95.70;;;;;;4998874;28;21092;-65
2023/09/12 06:56:37;;;;;;;10.13;7.47;;;26.80;94.70;;;;;;4991986;28;20489;-65
2023/09/12 06:59:04;;;;;;;14.33;8.00;;;27.50;94.50;;;;;;4993802;28;20481;-65
2023/09/12 07:01:31;;;;;;;8.23;7.40;;;28.10;93.50;;;;;;4992775;28;20980;-65
2023/09/12 07:03:57;;;;;;;16.00;9.80;;;28.70;92.80;;;;;;4982357;28;20484;-65
2023/09/12 07:06:24;;;;;;;10.70;8.00;;;29.30;91.90;;;;;;5001748;28;20847;-65
2023/09/12 07:08:52;;;;;;;11.43;7.20;;;29.70;91.30;;;;;;4990788;28;20489;-65
2023/09/12 07:11:49;;;;;;;9.17;6.83;;;30.10;90.90;;;;;;4983292;28;21067;-66
2023/09/12 07:14:16;;;;;;;13.23;7.77;;;30.50;90.00;;;;;;4991186;28;20490;-65
2023/09/12 07:16:42;;;;;;;13.00;7.30;;;30.70;89.10;;;;;;4981696;28;20485;-65
2023/09/12 07:19:10;;;;;;;15.57;8.77;;;30.70;89.00;;;;;;4977708;28;20877;-66
2023/09/12 07:21:36;;;;;;;9.63;7.90;;;30.20;90.00;;;;;;4993787;28;20476;-65
2023/09/12 07:24:04;;;;;;;9.63;7.80;;;29.60;89.70;;;;;;4996299;28;20482;-65
2023/09/12 07:26:30;;;;;;;10.23;8.03;;;29.10;90.80;;;;;;4989385;28;20462;-65
2023/09/12 07:29:02;;;;;;;14.43;9.10;;;28.50;91.10;;;;;;4984825;28;20509;-65
2023/09/12 07:31:29;;;;;;;9.67;8.03;;;28.20;91.80;;;;;;4983926;28;20484;-65
2023/09/12 07:33:56;;;;;;;9.60;8.10;;;28.10;93.40;;;;;;4994551;28;20868;-65
2023/09/12 07:36:22;;;;;;;14.90;8.20;;;27.80;92.80;;;;;;4990348;28;20489;-65
2023/09/12 07:38:49;;;;;;;10.40;8.07;;;27.30;93.10;;;;;;4981986;28;20488;-65
2023/09/12 07:41:16;;;;;;;8.70;7.73;;;27.10;93.70;;;;;;4975387;28;20485;-65
2023/09/12 07:43:43;;;;;;;11.63;8.40;;;26.60;94.00;;;;;;4985660;28;20453;-65
2023/09/12 07:46:12;;;;;;;11.00;8.80;;;26.20;94.30;;;;;;4973817;28;20489;-65
2023/09/12 07:48:38;;;;;;;12.47;9.37;;;25.90;94.80;;;;;;4979084;28;20621;-65
2023/09/12 07:51:14;;;;;;;9.83;8.53;;;25.70;95.00;;;;;;4985725;28;20484;-65
2023/09/12 07:53:41;;;;;;;10.13;8.60;;;25.50;95.30;;;;;;4986941;28;20521;-65
2023/09/12 07:56:09;;;;;;;15.00;8.53;;;25.20;95.50;;;;;;4985847;28;20528;-65
2023/09/12 07:58:36;;;;;;;12.97;8.70;;;25.10;96.40;;;;;;4991596;28;20508;-65
2023/09/12 08:01:06;;;;;;;11.83;8.27;;;24.90;96.20;;;;;;4986384;28;20894;-65
2023/09/12 08:03:34;;;;;;;15.10;11.47;;;24.90;96.30;;;;;;4978356;28;20481;-65
2023/09/12 08:06:01;;;;;;;13.23;9.10;;;24.70;96.40;;;;;;5005065;28;20497;-65
2023/09/12 08:08:28;;;;;;;13.80;10.07;;;24.70;97.20;;;;;;4966700;28;20485;-65
2023/09/12 08:10:54;;;;;;;9.60;7.77;;;24.40;97.50;;;;;;4986308;28;20460;-65
2023/09/12 08:13:22;;;;;;;12.80;10.30;;;24.40;97.80;;;;;;4982325;28;21958;-64
2023/09/12 08:15:49;;;;;;;16.47;8.70;;;24.30;97.60;;;;;;4988263;28;20897;-65
2023/09/12 08:18:16;;;;;;;13.80;8.73;;;24.10;98.50;;;;;;4976403;28;20865;-65
2023/09/12 08:20:44;;;;;;;12.00;8.70;;;24.10;98.00;;;;;;5006465;28;20478;-65
2023/09/12 08:23:11;;;;;;;13.20;9.37;;;24.40;98.00;;;;;;4992744;28;20484;-65
2023/09/12 08:25:38;;;;;;;14.00;10.20;;;24.60;97.60;;;;;;4980568;28;20485;-65
2023/09/12 08:28:05;;;;;;;12.90;9.40;;;24.40;98.70;;;;;;4994246;28;20481;-65
2023/09/12 08:30:33;;;;;;;11.97;9.80;;;24.50;98.10;;;;;;4976555;28;20560;-65
2023/09/12 08:33:03;;;;;;;14.73;9.77;;;24.60;98.30;;;;;;4983588;28;20572;-65
2023/09/12 08:35:29;;;;;;;13.80;8.57;;;24.50;98.10;;;;;;4979686;28;20610;-64
2023/09/12 08:37:57;;;;;;;13.63;8.43;;;24.50;99.00;;;;;;4990669;28;20489;-64
2023/09/12 08:40:24;;;;;;;17.60;10.40;;;24.50;98.60;;;;;;4989698;28;21282;-64
2023/09/12 08:42:53;;;;;;;14.00;10.03;;;24.60;98.90;;;;;;4991679;28;20893;-64
2023/09/12 08:45:19;;;;;;;14.43;9.13;;;24.80;98.40;;;;;;4984191;28;20490;-65
2023/09/12 08:47:50;;;;;;;11.43;9.80;;;24.90;97.70;;;;;;4985052;28;20631;-64
2023/09/12 08:50:17;;;;;;;11.40;9.73;;;24.80;98.10;;;;;;4985758;28;20738;-64
2023/09/12 08:52:46;;;;;;;13.97;10.53;;;24.80;98.60;;;;;;4986506;28;20548;-64
2023/09/12 08:55:14;;;;;;;12.17;10.03;;;24.90;98.70;;;;;;4985237;28;20485;-64
2023/09/12 08:57:42;;;;;;;14.63;9.40;;;24.90;98.50;;;;;;4985708;28;21188;-64
2023/09/12 09:00:12;;;;;;;13.53;10.27;;;24.90;98.10;;;;;;4988876;28;23394;-64
2023/09/12 09:02:40;;;;;;;11.63;9.20;;;25.00;98.20;;;;;;4989797;28;20621;-64
2023/09/12 09:05:08;;;;;;;11.40;9.80;;;25.20;98.30;;;;;;4989848;28;20544;-64
2023/09/12 09:07:37;;;;;;;12.10;9.40;;;25.10;98.10;;;;;;4987216;28;20555;-64
2023/09/12 09:10:05;;;;;;;10.30;8.20;;;25.10;98.40;;;;;;4981382;28;20485;-64
2023/09/12 09:12:34;;;;;;;11.17;9.00;;;25.20;98.70;;;;;;4988428;28;21148;-63
2023/09/12 09:15:20;;;;;;;12.93;9.73;;;25.40;98.50;;;;;;4983417;28;20484;-64
2023/09/12 09:17:47;;;;;;;16.53;9.93;;;25.50;97.90;;;;;;4978716;28;20482;-64
2023/09/12 09:20:23;;;;;;;12.10;8.57;;;25.40;97.90;;;;;;4988238;28;20849;-63
2023/09/12 09:23:00;;;;;;;14.37;9.10;;;25.50;98.10;;;;;;4973085;28;20994;-63
2023/09/12 09:25:27;;;;;;;12.90;10.33;;;25.60;98.80;;;;;;4971745;28;21229;-63
2023/09/12 09:27:55;;;;;;;10.87;8.30;;;25.80;98.20;;;;;;4990375;28;21015;-63
2023/09/12 09:30:41;;;;;;;15.20;9.87;;;25.90;98.30;;;;;;4989106;28;20509;-63
2023/09/12 09:33:08;;;;;;;12.23;10.00;;;26.10;98.50;;;;;;4990010;28;20726;-63
2023/09/12 09:35:36;;;;;;;15.30;9.87;;;26.20;98.10;;;;;;4981883;28;20477;-63
2023/09/12 09:38:04;;;;;;;11.60;9.17;;;26.30;98.30;;;;;;4981323;28;20473;-64
2023/09/12 09:40:31;;;;;;;11.23;9.87;;;26.40;98.50;;;;;;4985012;28;20468;-63
2023/09/12 09:43:00;;;;;;;11.33;9.13;;;26.50;98.50;;;;;;4992051;28;20482;-64
2023/09/12 09:45:27;;;;;;;12.63;9.77;;;26.80;99.10;;;;;;4988350;28;20444;-64
2023/09/12 09:47:58;;;;;;;11.77;8.87;;;27.00;98.80;;;;;;4988821;28;20480;-63
2023/09/12 09:50:25;;;;;;;15.87;10.70;;;27.30;99.20;;;;;;4986184;28;20471;-63
2023/09/12 09:52:56;;;;;;;13.67;9.90;;;27.70;97.70;;;;;;4987344;28;20960;-64
2023/09/12 09:55:23;;;;;;;15.40;10.17;;;28.00;97.00;;;;;;4988144;28;20480;-64
2023/09/12 09:57:52;;;;;;;12.37;9.80;;;28.20;97.90;;;;;;4991558;28;20505;-63
2023/09/12 10:00:21;;;;;;;13.13;9.70;;;28.30;96.30;;;;;;4983014;28;20540;-63
2023/09/12 10:02:50;;;;;;;13.73;10.40;;;28.40;96.10;;;;;;4992202;28;20725;-63
2023/09/12 10:05:17;;;;;;;15.10;12.60;;;28.30;95.70;;;;;;4989158;28;20488;-63
2023/09/12 10:07:47;;;;;;;21.73;13.47;;;28.30;96.50;;;;;;4983395;28;20505;-63
2023/09/12 10:10:15;;;;;;;17.40;12.00;;;28.10;96.60;;;;;;4990655;28;20484;-64
2023/09/12 10:12:49;;;;;;;19.67;12.50;;;28.10;96.90;;;;;;4987275;28;20870;-63
2023/09/12 10:15:18;;;;;;;14.20;10.37;;;28.10;96.60;;;;;;4991576;28;20561;-63
2023/09/12 10:17:50;;;;;;;21.83;11.80;;;28.30;96.70;;;;;;4989055;28;20559;-63
2023/09/12 10:20:21;;;;;;;13.90;10.13;;;28.20;97.30;;;;;;4995105;28;20473;-62
2023/09/12 10:22:57;;;;;;;12.93;10.37;;;28.40;96.70;;;;;;4996898;28;20489;-65
2023/09/12 10:25:25;;;;;;;14.97;10.80;;;28.40;95.60;;;;;;4995778;28;20516;-64
2023/09/12 10:27:53;;;;;;;15.50;10.50;;;28.40;96.60;;;;;;4995071;28;20825;-64
2023/09/12 10:30:22;;;;;;;12.67;10.60;;;28.60;97.50;;;;;;4991608;28;20547;-63
2023/09/12 10:32:51;;;;;;;11.83;10.20;;;28.80;96.60;;;;;;4989355;28;20482;-63
2023/09/12 10:35:18;;;;;;;11.40;9.73;;;28.90;96.00;;;;;;4992332;28;20942;-63
2023/09/12 10:37:49;;;;;;;10.70;9.60;;;28.90;95.40;;;;;;4996468;28;20925;-63
2023/09/12 10:40:18;;;;;;;11.00;8.17;;;28.90;96.40;;;;;;4988177;28;20481;-63
2023/09/12 10:42:46;;;;;;;12.43;9.00;;;28.90;95.10;;;;;;4991880;28;20485;-63
2023/09/12 10:45:13;;;;;;;13.93;9.70;;;29.20;95.90;;;;;;4991085;28;20477;-63
2023/09/12 10:47:40;;;;;;;10.63;8.80;;;29.20;95.20;;;;;;4991651;28;20484;-63
2023/09/12 10:50:10;;;;;;;11.77;9.20;;;29.30;94.80;;;;;;4990992;28;20563;-63
2023/09/12 10:52:39;;;;;;;12.20;10.10;;;29.30;94.30;;;;;;4995145;28;20490;-63
2023/09/12 10:55:07;;;;;;;11.23;9.63;;;29.50;95.70;;;;;;4991146;28;20513;-63
2023/09/12 10:57:34;;;;;;;10.50;9.47;;;29.70;94.90;;;;;;4999043;28;20480;-64
2023/09/12 11:00:12;;;;;;;11.93;9.93;;;30.00;94.60;;;;;;4993321;28;20480;-63
2023/09/12 11:02:40;;;;;;;9.57;8.30;;;30.20;95.00;;;;;;4973834;28;21302;-63
2023/09/12 11:05:28;;;;;;;10.53;9.53;;;30.20;93.40;;;;;;4998898;28;20448;-63
2023/09/12 11:07:58;;;;;;;12.77;9.40;;;30.10;93.80;;;;;;4989779;28;20459;-63
2023/09/12 11:10:26;;;;;;;9.33;7.80;;;30.20;94.20;;;;;;4991388;28;20563;-63
2023/09/12 11:12:54;;;;;;;10.07;8.70;;;30.20;93.50;;;;;;4993460;28;20460;-63
2023/09/12 11:15:23;;;;;;;10.07;7.77;;;30.50;93.10;;;;;;4992851;28;20797;-63
2023/09/12 11:18:00;;;;;;;10.50;8.83;;;30.50;92.30;;;;;;4983858;28;20498;-63
2023/09/12 11:20:53;;;;;;;10.90;8.83;;;30.70;93.20;;;;;;5000494;28;20488;-64
2023/09/12 11:23:20;;;;;;;15.03;9.07;;;30.70;91.70;;;;;;4972287;28;20484;-63
2023/09/12 11:25:47;;;;;;;13.73;9.87;;;30.60;92.00;;;;;;4981612;28;20569;-63
2023/09/12 11:28:14;;;;;;;9.17;8.20;;;30.70;92.20;;;;;;4981351;28;21152;-64
2023/09/12 11:30:57;;;;;;;10.50;8.10;;;30.70;91.60;;;;;;4994805;28;20587;-63
2023/09/12 11:33:25;;;;;;;9.83;7.93;;;30.70;90.80;;;;;;4983750;28;20448;-64
2023/09/12 11:35:55;;;;;;;13.00;9.00;;;30.80;91.90;;;;;;4987483;28;20472;-65
2023/09/12 11:38:30;;;;;;;9.60;8.60;;;30.90;91.40;;;;;;5001557;28;20709;-65
2023/09/12 11:40:58;;;;;;;8.87;8.07;;;31.20;91.20;;;;;;4991252;28;20459;-65
2023/09/12 11:43:26;;;;;;;11.50;8.57;;;31.50;92.30;;;;;;4980550;28;20466;-65
2023/09/12 11:45:53;;;;;;;12.60;8.70;;;31.70;90.90;;;;;;4989225;28;21113;-65
2023/09/12 11:48:20;;;;;;;10.87;8.57;;;31.70;91.20;;;;;;4992654;28;20466;-65
2023/09/12 11:50:52;;;;;;;8.50;7.70;;;31.80;91.40;;;;;;4984421;28;20475;-65
2023/09/12 11:53:25;;;;;;;12.77;8.30;;;31.80;89.10;;;;;;4984102;28;20701;-65
2023/09/12 11:55:54;;;;;;;8.40;7.60;;;31.80;90.00;;;;;;4988384;28;20486;-65
2023/09/12 11:58:21;;;;;;;10.50;8.43;;;31.90;90.90;;;;;;4991512;28;20489;-65
2023/09/12 12:00:49;;;;;;;10.07;8.83;;;31.90;90.30;;;;;;4988757;28;20540;-65
2023/09/12 12:03:16;;;;;;;14.90;9.40;;;31.90;91.90;;;;;;4984866;28;20474;-65
2023/09/12 12:05:43;;;;;;;9.00;8.03;;;31.80;90.20;;;;;;4990112;28;20448;-65
2023/09/12 12:08:12;;;;;;;12.10;8.07;;;31.70;89.80;;;;;;4980722;28;20824;-65
2023/09/12 12:10:40;;;;;;;10.67;8.70;;;31.70;88.90;;;;;;4996150;28;20481;-65
2023/09/12 12:13:12;;;;;;;9.93;9.00;;;31.80;90.00;;;;;;4985679;28;21028;-66
2023/09/12 12:15:38;;;;;;;11.50;9.33;;;31.90;91.10;;;;;;4988361;28;20481;-65
2023/09/12 12:18:05;;;;;;;14.17;9.60;;;31.80;90.50;;;;;;4988042;28;21085;-65
2023/09/12 12:20:32;;;;;;;11.73;8.83;;;31.90;90.80;;;;;;4987784;28;21093;-65
2023/09/12 12:22:59;;;;;;;16.50;9.40;;;31.80;90.00;;;;;;4985029;28;20477;-65
2023/09/12 12:25:25;;;;;;;12.13;8.40;;;31.70;90.20;;;;;;4990980;28;20458;-66
2023/09/12 12:27:54;;;;;;;9.20;7.60;;;31.80;90.10;;;;;;4964796;28;20499;-65
2023/09/12 12:30:21;;;;;;;9.53;8.53;;;31.90;90.60;;;;;;4985446;28;21090;-65
2023/09/12 12:32:49;;;;;;;11.10;9.60;;;31.90;88.70;;;;;;4988985;28;20473;-66
2023/09/12 12:35:19;;;;;;;10.73;9.60;;;32.00;90.20;;;;;;4995882;28;21055;-65
2023/09/12 12:37:46;;;;;;;10.87;8.60;;;32.00;90.20;;;;;;4992121;28;20814;-66
2023/09/12 12:40:13;;;;;;;10.67;8.40;;;32.10;89.10;;;;;;4990134;28;20489;-66
2023/09/12 12:42:41;;;;;;;7.73;6.93;;;32.20;90.10;;;;;;4988064;28;20982;-66
2023/09/12 12:45:14;;;;;;;19.60;11.40;;;32.40;90.00;;;;;;4987271;28;20456;-66